Saratoga, CA

7:12 PM PDT on July 28, 2016 (GMT -0700)
Scotland Dr. near Glasgow Dr. | | Change Station

Elev 375 ft 37.27 °N, 122.02 °W | Updated 1 second ago

Mostly Cloudy
Mostly Cloudy
83.0 °F
Feels Like 83 °F
N
1.2
Wind Variable Wind from North
Gusts 3.5 mph

Today
High -- | Low -- °F
--% Chance of Precip.
Yesterday
High -- | Low -- °F
Precip. -- in
Pressure 29.82 in
Visibility 10.0 miles
Clouds Few 1400 ft
Scattered Clouds 8000 ft
Mostly Cloudy 11000 ft
Heat Index 83 °F
Dew Point 58 °F
Humidity 43%
Rainfall 0.00 in
Snow Depth Not available.
6:09 AM 8:18 PM
Waning Crescent, 26% visible
METAR KSJC 290153Z 30009KT 10SM FEW014 SCT080 BKN110 24/15 A2982 RMK AO2 SLP098 FU FEW014 FU SCT080 FU BKN110 T02440150
Pressure 29.82 in
Visibility 10.0 miles
Clouds Few 1400 ft
Scattered Clouds 8000 ft
Mostly Cloudy 11000 ft
Heat Index 83 °F
Dew Point 58 °F
Humidity 43%
Rainfall 0.00 in
Snow Depth Not available.
6:09 AM 8:18 PM
Waning Crescent, 26% visible
METAR KSJC 290153Z 30009KT 10SM FEW014 SCT080 BKN110 24/15 A2982 RMK AO2 SLP098 FU FEW014 FU SCT080 FU BKN110 T02440150

10-Day Weather Forecast

Almanac

Astronomy

Jul. 28, 2016 Rise Set
Actual Time
Civil Twilight
Nautical Twilight
Astronomical Twilight
Moon
Length of Visible Light
Length of Day
Tomorrow will be .
, % of the Moon is Illuminated

Today's Extremes

State Highs State Lows

Community

WunderPhotos

Upload Photos

1,928,266 photos uploaded!

WunderBlog® & News

Nearby

Air Quality

  Air Quality AQ Index Pollutant
Not available.

Snow Depth

Station Depth Elevation

Earthquake Activity

City Distance Mag. Time & Date
Minimum magnitude displayed is 2.5.

Coastal Water Temperatures

Place Temperature

Stations

Nearby Weather Stations

Station Location Temp. Windchill Dew Point Humidity Wind Precip. Elev Updated Type
                   

Watches & Warnings

There are currently no watches in effect.